Fontana, CA

10:40 PM PDT on October 24, 2014 (GMT -0700)
The Villiages | Change Station
CLOSE
Current Station
Personal Weather Station
Location: Fontana, CA
Elevation: 1309 ft
Nearby Weather Stations

Elev 1309 ft 34.12 °N, 117.48 °W | Updated 17 seconds ago

Clear
Clear
69.1 °F
Feels Like 69.1 °F
N
0.7
Wind Variable Wind from SW
Gusts 1.6 mph

Today
High -- | Low -- °F
--% Chance of Precip.
Yesterday
High -- | Low -- °F
Precip. -- in
7:02 AM 6:04 PM
New Moon, 2% visible
Pressure 29.96 in
Visibility 10.0 miles
Clouds Clear
Dew Point 39 °F
Humidity 33%
Rainfall 0.00 in
Snow Depth Not available.
UV 0 out of 12
Pollen 4.10 out of 12
Ozone Good
PM2.5 Moderate
Flu Activity Sporadic
METAR KONT 250453Z 00000KT 10SM CLR 24/M01 A3001 RMK AO2 SLP146 T02391011

More Conditions Fewer Conditions

Pressure 29.96 in
Visibility 10.0 miles
Clouds Clear
Dew Point 39 °F
Humidity 33%
Rainfall 0.00 in
Snow Depth Not available.
UV 0 out of 12
Pollen 4.10 out of 12
Ozone Good
PM2.5 Moderate
Flu Activity Sporadic
METAR KONT 250453Z 00000KT 10SM CLR 24/M01 A3001 RMK AO2 SLP146 T02391011

More Conditions Fewer Conditions

10-Day Weather Forecast

Almanac

Astronomy

Oct. 24, 2014 Rise Set
Actual Time 7:02 AM PDT 6:04 PM PDT
Civil Twilight 6:36 AM PDT 6:30 PM PDT
Nautical Twilight 6:07 AM PDT 6:59 PM PDT
Astronomical Twilight 5:38 AM PDT 7:28 PM PDT
Moon 7:44 AM PDT (10/24) 6:50 PM PDT (10/24)
Length of Visible Light 11h 53m
Length of Day
11h 02m
Tomorrow will be 1m 57s shorter.
New Moon, 2% of the Moon is Illuminated
Oct 25
New Moon
Oct 30
First Quarter
Nov 6
Full
Nov 14
Last Quarter
Nov 22
New

Yesterday's Extremes

State Highs State Lows

Community

WunderPhotos

Upload Photos

1,764,785 photos uploaded!

Nearby

Air Quality

  Air Quality AQ Index Pollutant
Yesterday Good
PM10
Yesterday Moderate
OZONE
Current Moderate
PM2.5
Current Good
OZONE
Saturday Moderate
PM10
Saturday Good
OZONE
Saturday Good
CO
Saturday Good
NO2

Snow Depth

Station Depth Elevation
Virginia Lakes Ridge 0 in 9200 ft
Leavitt Lake 1 in 9400 ft
Leavitt Meadows 1 in 7200 ft
Summit Meadow 1 in 9122 ft
Monitor Pass 1 in 8350 ft

Earthquake Activity

City Distance Mag. Time & Date
Brea, California 29 miles 2.9 3:35 PM PDT
2014-10-23
Brea, California 28 miles 2.8 3:34 PM PDT
2014-10-23
Corona, California 20 miles 2.5 1:09 PM PDT
2014-10-23
Minimum magnitude displayed is 2.5.

Coastal Water Temperatures

Place Temperature
No Stations Reporting

Nearby Weather Stations